Time;durP1;ratioP1;P1;durP2;ratioP2;P2;SDS_P1;SDS_P2;PMS_P1;PMS_P2;Temp;Humidity;BMP_temperature;BMP_pressure;BME280_temperature;BME280_humidity;BME280_pressure;Samples;Min_cycle;Max_cycle;Signal;HPM_P1;HPM_P2
2021/11/21 05:02:04;;;;;;;44.75;30.67;;;;;;;-0.13;100.00;95307.06;5298739;22;20062;-69
2021/11/21 05:04:30;;;;;;;42.70;29.65;;;;;;;-0.21;100.00;95306.75;4950476;28;20130;-69
2021/11/21 05:06:56;;;;;;;32.70;23.52;;;;;;;-0.40;100.00;95310.53;4969678;28;20102;-71
2021/11/21 05:09:21;;;;;;;23.52;19.20;;;;;;;-0.82;100.00;95308.94;4969943;28;20031;-71
2021/11/21 05:11:47;;;;;;;28.45;18.98;;;;;;;-0.85;100.00;95317.56;4970866;28;20403;-71
2021/11/21 05:14:16;;;;;;;25.75;19.33;;;;;;;-0.79;100.00;95340.06;4971936;28;20030;-71
2021/11/21 05:16:41;;;;;;;27.63;18.90;;;;;;;-0.48;100.00;95353.47;4970144;28;20453;-72
2021/11/21 05:19:07;;;;;;;27.95;21.20;;;;;;;-0.24;100.00;95352.75;4971284;28;20189;-72
2021/11/21 05:21:32;;;;;;;27.42;20.15;;;;;;;-0.18;100.00;95351.53;4970101;28;20042;-72
2021/11/21 05:23:58;;;;;;;27.88;21.52;;;;;;;-0.04;100.00;95365.03;4989121;28;20034;-70
2021/11/21 05:26:24;;;;;;;29.35;20.08;;;;;;;0.18;100.00;95371.31;4970270;28;20034;-70
2021/11/21 05:28:50;;;;;;;26.50;19.92;;;;;;;0.26;100.00;95344.44;4971351;28;20034;-70
2021/11/21 05:31:17;;;;;;;27.15;22.05;;;;;;;-0.03;100.00;95327.66;4970929;28;20088;-70
2021/11/21 05:33:42;;;;;;;29.23;22.00;;;;;;;-0.06;100.00;95312.59;4987657;28;20030;-70
2021/11/21 05:36:07;;;;;;;26.25;19.63;;;;;;;0.16;100.00;95299.31;4971464;28;20031;-70
2021/11/21 05:38:33;;;;;;;27.05;17.58;;;;;;;0.48;100.00;95296.25;4987537;28;20519;-70
2021/11/21 05:40:59;;;;;;;33.55;21.58;;;;;;;0.48;100.00;95286.06;4975480;28;20452;-70
2021/11/21 05:43:24;;;;;;;32.70;23.15;;;;;;;0.42;100.00;95291.56;4985392;28;20055;-70
2021/11/21 05:45:49;;;;;;;23.65;18.95;;;;;;;0.60;100.00;95296.38;4988468;28;20384;-70
2021/11/21 05:48:15;;;;;;;28.95;21.50;;;;;;;0.64;100.00;95283.34;4988063;28;20026;-70
2021/11/21 05:50:40;;;;;;;23.75;18.75;;;;;;;0.83;100.00;95270.16;4987754;28;20022;-70
2021/11/21 05:53:06;;;;;;;29.65;22.20;;;;;;;1.02;100.00;95256.06;4988889;28;20070;-70
2021/11/21 05:55:32;;;;;;;23.08;18.83;;;;;;;1.16;100.00;95242.34;4970513;28;20027;-70
2021/11/21 05:57:57;;;;;;;29.95;24.27;;;;;;;1.29;100.00;95230.38;4992744;28;20035;-70
2021/11/21 06:00:25;;;;;;;30.60;25.20;;;;;;;1.36;100.00;95211.16;4990531;28;20031;-70
2021/11/21 06:02:51;;;;;;;36.17;29.27;;;;;;;1.23;100.00;95202.75;4975259;28;20145;-70
2021/11/21 06:05:17;;;;;;;27.85;21.88;;;;;;;1.45;100.00;95205.41;4973726;28;20517;-70
2021/11/21 06:07:42;;;;;;;35.15;28.50;;;;;;;1.66;100.00;95202.25;4974897;28;20030;-69
2021/11/21 06:10:09;;;;;;;26.90;19.85;;;;;;;1.46;100.00;95189.19;4991508;28;20037;-70
2021/11/21 06:12:34;;;;;;;32.60;22.85;;;;;;;1.67;100.00;95178.34;4992393;28;20415;-70
2021/11/21 06:15:00;;;;;;;37.63;30.13;;;;;;;2.00;100.00;95171.56;4979892;28;20023;-70
2021/11/21 06:17:26;;;;;;;29.50;22.40;;;;;;;2.07;100.00;95148.94;4957150;28;20035;-72
2021/11/21 06:19:52;;;;;;;24.83;20.30;;;;;;;2.59;100.00;95128.75;4984383;28;20030;-72
2021/11/21 06:22:20;;;;;;;33.55;22.70;;;;;;;3.17;100.00;95107.09;4987512;28;20476;-72
2021/11/21 06:24:47;;;;;;;28.05;23.73;;;;;;;2.96;100.00;95082.38;4987414;28;20033;-72
2021/11/21 06:27:13;;;;;;;34.33;27.05;;;;;;;3.05;100.00;95079.13;5007109;28;20022;-72
2021/11/21 06:29:40;;;;;;;49.75;40.22;;;;;;;3.48;100.00;95069.59;4999242;28;20030;-72
2021/11/21 06:32:06;;;;;;;30.98;23.80;;;;;;;4.10;100.00;95056.72;4992164;28;20056;-72
2021/11/21 06:34:31;;;;;;;27.05;24.20;;;;;;;4.68;96.38;95028.69;4972651;28;20026;-72
2021/11/21 06:36:57;;;;;;;19.45;17.05;;;;;;;5.13;91.68;95021.25;4974846;28;20508;-72
2021/11/21 06:39:22;;;;;;;34.95;31.30;;;;;;;6.29;87.63;95007.97;4972716;28;20112;-72
2021/11/21 06:41:47;;;;;;;18.40;16.60;;;;;;;7.47;81.07;94998.28;4991864;28;20411;-72
2021/11/21 06:44:13;;;;;;;16.73;15.13;;;;;;;6.31;82.58;94997.53;4972959;28;20030;-71
2021/11/21 06:46:39;;;;;;;18.67;16.70;;;;;;;5.45;88.65;94998.66;4990559;28;20384;-70
2021/11/21 06:49:05;;;;;;;15.38;13.75;;;;;;;6.20;89.03;95002.88;4990776;28;20081;-70
2021/11/21 06:51:30;;;;;;;17.38;15.70;;;;;;;7.09;84.60;94998.63;4990505;28;20025;-70
2021/11/21 06:53:57;;;;;;;14.60;13.05;;;;;;;7.95;80.92;94992.63;4992002;28;20085;-72
2021/11/21 06:56:23;;;;;;;15.20;13.88;;;;;;;8.59;77.00;94968.84;4989826;28;20068;-72
2021/11/21 06:58:48;;;;;;;20.67;18.10;;;;;;;6.71;83.46;94982.53;4991537;28;20035;-70
2021/11/21 07:01:14;;;;;;;21.05;18.92;;;;;;;6.17;90.08;94990.31;4988725;28;20050;-70
2021/11/21 07:03:40;;;;;;;18.02;16.33;;;;;;;7.59;86.41;94980.81;4974226;28;20026;-70
2021/11/21 07:06:05;;;;;;;16.00;14.40;;;;;;;8.48;81.31;94967.38;4990162;28;20034;-71
2021/11/21 07:08:31;;;;;;;16.20;14.57;;;;;;;7.92;82.25;94965.38;4989998;28;20492;-70
2021/11/21 07:10:56;;;;;;;16.63;15.15;;;;;;;8.44;81.63;94973.00;4990423;28;20022;-70
2021/11/21 07:13:22;;;;;;;15.50;14.00;;;;;;;8.50;80.98;94967.22;4989417;28;20034;-70
2021/11/21 07:15:48;;;;;;;12.82;11.70;;;;;;;8.20;83.26;94965.97;4988768;28;20096;-70
2021/11/21 07:18:14;;;;;;;13.60;12.48;;;;;;;8.93;82.35;94961.78;4987975;28;20026;-70
2021/11/21 07:20:39;;;;;;;12.30;11.15;;;;;;;8.24;82.97;94961.31;4990306;28;20427;-70
2021/11/21 07:23:05;;;;;;;11.43;10.50;;;;;;;9.86;78.90;94954.41;4988973;28;20050;-71
2021/11/21 07:25:31;;;;;;;11.40;10.40;;;;;;;10.04;76.21;94945.50;4990318;28;20039;-72
2021/11/21 07:27:57;;;;;;;14.00;12.05;;;;;;;8.80;80.84;94952.91;4990415;28;20033;-72
2021/11/21 07:30:24;;;;;;;10.90;10.00;;;;;;;9.91;78.33;94949.56;4971527;28;20388;-70
2021/11/21 07:32:50;;;;;;;10.40;9.55;;;;;;;9.21;76.67;94940.81;4990496;28;20034;-70
2021/11/21 07:35:18;;;;;;;9.93;9.15;;;;;;;10.52;75.71;94935.91;4971485;28;20150;-70
2021/11/21 07:37:44;;;;;;;9.80;9.10;;;;;;;12.48;67.04;94932.13;4991166;28;20763;-70
2021/11/21 07:40:10;;;;;;;7.90;7.35;;;;;;;13.99;60.20;94931.66;4988897;28;20049;-70
2021/11/21 07:42:37;;;;;;;8.32;7.72;;;;;;;15.02;55.94;94935.88;4990378;28;20484;-71
2021/11/21 07:45:05;;;;;;;10.02;9.30;;;;;;;15.48;52.37;94933.31;4974120;28;20472;-71
2021/11/21 07:47:31;;;;;;;11.82;10.98;;;;;;;15.95;51.40;94920.03;4972156;28;20045;-71
2021/11/21 07:49:57;;;;;;;13.10;12.00;;;;;;;16.09;50.88;94908.53;4990440;28;20423;-71
2021/11/21 07:52:24;;;;;;;11.30;10.40;;;;;;;14.73;51.97;94919.56;4958988;28;20440;-71
2021/11/21 07:54:49;;;;;;;10.50;9.63;;;;;;;15.96;51.83;94916.38;4980409;28;20423;-71
2021/11/21 07:57:15;;;;;;;10.75;9.75;;;;;;;15.11;53.25;94919.03;4988997;28;20026;-71
2021/11/21 07:59:40;;;;;;;9.52;8.88;;;;;;;15.76;52.64;94915.66;4986722;28;20034;-71
2021/11/21 08:02:06;;;;;;;9.30;8.60;;;;;;;15.37;53.16;94915.63;4987891;28;20049;-71
2021/11/21 08:04:31;;;;;;;9.25;8.60;;;;;;;14.00;58.09;94909.03;4987481;28;20030;-71
2021/11/21 08:06:57;;;;;;;9.00;8.30;;;;;;;14.29;57.65;94915.78;4985391;28;20050;-73
2021/11/21 08:09:22;;;;;;;9.73;9.02;;;;;;;16.40;51.95;94907.03;4969335;28;20026;-72
2021/11/21 08:11:48;;;;;;;9.35;8.63;;;;;;;17.24;50.02;94910.97;4971254;28;20033;-69
2021/11/21 08:14:13;;;;;;;9.55;8.85;;;;;;;16.95;50.30;94911.63;4969107;28;20225;-72
2021/11/21 08:16:38;;;;;;;9.60;8.80;;;;;;;17.79;48.73;94908.53;4970970;28;20030;-70
2021/11/21 08:19:04;;;;;;;8.77;8.07;;;;;;;16.57;51.71;94897.72;4968336;28;20066;-69
2021/11/21 08:21:29;;;;;;;8.88;8.27;;;;;;;15.05;55.12;94901.56;4970001;28;20031;-69
2021/11/21 08:23:55;;;;;;;8.40;7.90;;;;;;;16.58;51.90;94896.72;4969948;28;20023;-69
2021/11/21 08:26:20;;;;;;;9.02;8.35;;;;;;;16.94;50.53;94896.91;4973323;28;20030;-69
2021/11/21 08:28:46;;;;;;;8.65;7.95;;;;;;;16.77;51.90;94901.03;4987044;28;20038;-69
2021/11/21 08:31:11;;;;;;;11.73;10.82;;;;;;;17.20;50.91;94895.94;4984720;28;20026;-69
2021/11/21 08:33:37;;;;;;;12.05;10.88;;;;;;;17.18;49.33;94897.94;4988240;28;20045;-69
2021/11/21 08:36:03;;;;;;;13.95;10.82;;;;;;;17.74;48.72;94897.94;4987200;28;20109;-71
2021/11/21 08:38:29;;;;;;;12.35;11.45;;;;;;;17.53;49.10;94890.44;4979804;28;20042;-69
2021/11/21 08:40:54;;;;;;;12.25;11.38;;;;;;;17.35;50.16;94880.69;4986507;28;20034;-73
2021/11/21 08:43:20;;;;;;;11.48;10.57;;;;;;;17.18;51.08;94887.47;4988103;28;20404;-71
2021/11/21 08:45:45;;;;;;;11.85;11.00;;;;;;;18.05;49.04;94879.47;4987023;28;20065;-71
2021/11/21 08:48:12;;;;;;;12.13;11.23;;;;;;;18.52;47.18;94883.19;4985050;28;20443;-72
2021/11/21 08:50:38;;;;;;;10.73;9.73;;;;;;;18.47;46.94;94880.38;4968610;28;20101;-71
2021/11/21 08:53:04;;;;;;;9.07;8.38;;;;;;;19.25;45.44;94881.13;4988003;28;20528;-72
2021/11/21 08:55:30;;;;;;;9.30;8.32;;;;;;;18.71;45.25;94870.81;4986214;28;20133;-71
2021/11/21 08:57:56;;;;;;;7.60;7.07;;;;;;;18.86;44.78;94864.16;4985027;28;20027;-71
2021/11/21 09:00:22;;;;;;;8.35;7.75;;;;;;;18.44;47.07;94863.28;4988959;28;20518;-71
2021/11/21 09:02:47;;;;;;;7.40;6.93;;;;;;;18.69;45.31;94864.97;4987890;28;20549;-71
2021/11/21 09:05:13;;;;;;;12.50;9.50;;;;;;;18.12;47.22;94867.09;4991623;28;20096;-72
2021/11/21 09:07:41;;;;;;;13.60;12.52;;;;;;;18.51;46.54;94860.59;4990654;28;20085;-71
2021/11/21 09:10:09;;;;;;;12.35;11.48;;;;;;;17.70;47.99;94857.44;4986138;28;20439;-72
2021/11/21 09:12:35;;;;;;;13.20;12.23;;;;;;;18.61;45.73;94852.19;4988470;28;20042;-72
2021/11/21 09:15:01;;;;;;;13.23;12.15;;;;;;;18.53;46.29;94853.28;4985538;28;20038;-72
2021/11/21 09:17:26;;;;;;;12.55;11.35;;;;;;;18.07;47.39;94853.03;4982137;28;20599;-71
2021/11/21 09:19:52;;;;;;;12.43;11.32;;;;;;;18.04;46.53;94850.84;4972038;28;20423;-71
2021/11/21 09:22:18;;;;;;;10.32;9.63;;;;;;;17.74;47.75;94848.94;4988210;28;20029;-69
2021/11/21 09:24:43;;;;;;;10.23;9.43;;;;;;;17.53;47.85;94843.28;4986938;28;20053;-71
2021/11/21 09:27:14;;;;;;;9.85;9.25;;;;;;;17.94;46.47;94847.94;4987070;28;20054;-71
2021/11/21 09:29:43;;;;;;;9.77;9.07;;;;;;;17.23;48.17;94841.34;4987856;28;20042;-69
2021/11/21 09:32:09;;;;;;;10.52;9.82;;;;;;;18.10;46.14;94842.13;4986755;28;20105;-71
2021/11/21 09:34:35;;;;;;;10.82;10.05;;;;;;;18.76;44.93;94834.22;4987339;28;20028;-71
2021/11/21 09:37:00;;;;;;;11.82;11.02;;;;;;;18.41;45.48;94834.06;4987727;28;20034;-71
2021/11/21 09:39:26;;;;;;;11.05;10.32;;;;;;;18.29;46.23;94820.91;4988966;28;20590;-72
2021/11/21 09:41:52;;;;;;;12.43;11.57;;;;;;;17.70;46.86;94818.16;4987855;28;20077;-68
2021/11/21 09:44:18;;;;;;;11.95;10.98;;;;;;;17.24;47.43;94826.44;4987820;28;20074;-69
2021/11/21 09:46:44;;;;;;;10.98;10.18;;;;;;;18.23;45.56;94810.50;4956575;28;20097;-71
2021/11/21 09:49:10;;;;;;;11.00;10.18;;;;;;;18.08;45.87;94804.81;4967831;28;20039;-71
2021/11/21 09:51:36;;;;;;;10.05;9.35;;;;;;;18.09;45.66;94807.22;4968903;28;20093;-71
2021/11/21 09:54:01;;;;;;;10.10;9.40;;;;;;;18.19;46.15;94794.41;4967554;28;20114;-70
2021/11/21 09:56:26;;;;;;;11.38;10.60;;;;;;;18.94;43.26;94800.03;4968990;28;20027;-71
2021/11/21 09:58:52;;;;;;;10.98;10.18;;;;;;;18.79;44.46;94787.31;4961287;28;20026;-70
2021/11/21 10:01:37;;;;;;;11.68;10.88;;;;;;;18.62;44.88;94790.84;4987760;28;20054;-71
2021/11/21 10:04:04;;;;;;;11.95;11.13;;;;;;;18.42;45.25;94788.44;4988746;28;20500;-71
2021/11/21 10:06:37;;;;;;;12.02;11.13;;;;;;;18.72;43.76;94780.59;4987033;28;20046;-71
2021/11/21 10:09:08;;;;;;;13.65;12.48;;;;;;;16.87;48.57;94775.78;4988428;28;20026;-71
2021/11/21 10:12:11;;;;;;;13.60;12.25;;;;;;;13.90;59.34;94788.81;4986865;28;20109;-70
2021/11/21 10:14:55;;;;;;;12.10;11.18;;;;;;;13.96;58.17;94775.00;4986940;28;20045;-70
2021/11/21 10:17:22;;;;;;;14.00;12.65;;;;;;;13.94;58.11;94775.19;4988684;28;20060;-71
2021/11/21 10:20:09;;;;;;;13.32;12.23;;;;;;;13.15;59.74;94768.81;4986818;28;20204;-71
2021/11/21 10:22:55;;;;;;;14.07;12.77;;;;;;;13.35;60.95;94767.13;4988524;28;20038;-71
2021/11/21 10:25:32;;;;;;;14.77;13.38;;;;;;;12.03;63.81;94754.88;4968731;28;20392;-70
2021/11/21 10:28:20;;;;;;;13.68;12.30;;;;;;;12.33;67.83;94755.56;4967476;28;20127;-70
2021/11/21 10:31:03;;;;;;;14.82;13.23;;;;;;;12.36;66.70;94746.59;4977358;28;20221;-71
2021/11/21 10:33:41;;;;;;;15.45;13.95;;;;;;;12.15;67.12;94756.00;4987784;28;20093;-70
2021/11/21 10:36:08;;;;;;;15.30;14.02;;;;;;;11.99;66.98;94742.44;4970135;28;20063;-71
2021/11/21 10:38:44;;;;;;;14.68;13.18;;;;;;;12.21;67.74;94733.69;4988454;28;20088;-70
2021/11/21 10:41:18;;;;;;;14.80;13.40;;;;;;;12.28;65.29;94741.53;4987067;28;20085;-71
2021/11/21 10:44:00;;;;;;;14.18;12.98;;;;;;;11.67;68.88;94728.09;4991224;28;20026;-71
2021/11/21 10:46:48;;;;;;;18.65;14.02;;;;;;;11.72;68.19;94725.78;4990939;28;20096;-71
2021/11/21 10:49:16;;;;;;;13.70;12.23;;;;;;;12.20;66.90;94724.28;4990767;28;20042;-70
2021/11/21 10:51:43;;;;;;;13.88;12.75;;;;;;;11.70;68.39;94716.56;4991794;28;20504;-71
2021/11/21 10:54:23;;;;;;;15.60;14.10;;;;;;;11.56;70.01;94711.22;4990333;28;20030;-70
2021/11/21 10:56:50;;;;;;;15.68;14.13;;;;;;;12.16;67.91;94707.47;4992032;28;20428;-70
2021/11/21 10:59:37;;;;;;;14.23;13.02;;;;;;;11.96;68.11;94709.88;4989975;28;20064;-71
2021/11/21 11:02:12;;;;;;;15.82;14.25;;;;;;;11.60;68.10;94699.50;4990396;28;20511;-70
2021/11/21 11:04:38;;;;;;;15.32;13.90;;;;;;;11.90;68.09;94696.84;4991701;28;20034;-70
2021/11/21 11:07:17;;;;;;;16.15;14.65;;;;;;;12.51;66.06;94690.19;4989921;28;20053;-71
2021/11/21 11:09:43;;;;;;;13.60;12.25;;;;;;;12.21;67.38;94692.13;4990957;28;20032;-71
2021/11/21 11:12:10;;;;;;;14.50;13.10;;;;;;;12.19;67.69;94693.31;4989829;28;20118;-70
2021/11/21 11:14:36;;;;;;;13.68;12.27;;;;;;;11.88;68.84;94681.44;4991566;28;20112;-71
2021/11/21 11:17:02;;;;;;;13.50;12.27;;;;;;;11.56;69.57;94684.47;4974010;28;20121;-71
2021/11/21 11:19:28;;;;;;;14.00;12.70;;;;;;;11.67;69.11;94670.22;4990258;28;20105;-71
2021/11/21 11:21:54;;;;;;;12.27;11.23;;;;;;;11.95;69.43;94668.53;4991134;28;20475;-70
2021/11/21 11:24:22;;;;;;;13.15;11.95;;;;;;;12.44;66.80;94666.75;4989919;28;20033;-71
2021/11/21 11:26:56;;;;;;;14.40;13.10;;;;;;;11.93;68.82;94660.94;4991321;28;20464;-71
2021/11/21 11:29:26;;;;;;;12.75;11.48;;;;;;;11.81;68.64;94654.66;4989600;28;20026;-71
2021/11/21 11:31:52;;;;;;;;;;;;;;;12.15;68.38;94661.72;4974136;28;20031;-71
2021/11/21 11:34:34;;;;;;;16.80;12.32;;;;;;;12.20;66.40;94650.78;4971150;28;20354;-71
2021/11/21 11:36:59;;;;;;;13.20;11.82;;;;;;;12.39;65.34;94653.53;4952817;28;20019;-71
2021/11/21 11:39:38;;;;;;;13.65;12.38;;;;;;;12.02;67.47;94652.03;4971506;28;20026;-71
2021/11/21 11:42:32;;;;;;;13.50;12.20;;;;;;;11.42;70.55;94646.44;4952666;28;20169;-71
2021/11/21 11:44:58;;;;;;;13.95;12.70;;;;;;;11.74;69.06;94640.00;4970756;28;20035;-71
2021/11/21 11:47:28;;;;;;;12.57;11.27;;;;;;;12.09;67.28;94641.72;4971158;28;20404;-70
2021/11/21 11:49:54;;;;;;;15.55;12.82;;;;;;;12.36;66.63;94637.53;4970159;28;20027;-72
2021/11/21 11:52:55;;;;;;;14.75;12.88;;;;;;;11.95;67.64;94625.22;4975226;28;20027;-71
2021/11/21 11:55:22;;;;;;;13.52;12.10;;;;;;;11.89;68.09;94628.56;4969205;28;20570;-71
2021/11/21 11:57:48;;;;;;;13.23;11.95;;;;;;;12.00;67.68;94617.69;4971293;28;20041;-71
2021/11/21 12:00:46;;;;;;;12.82;11.65;;;;;;;12.09;67.17;94619.16;4974597;28;20113;-71
2021/11/21 12:03:40;;;;;;;13.45;12.15;;;;;;;11.67;68.43;94619.16;4970549;28;20073;-71
2021/11/21 12:06:07;;;;;;;13.43;12.23;;;;;;;11.75;68.90;94615.69;4980851;28;20042;-71
2021/11/21 12:08:32;;;;;;;13.70;12.35;;;;;;;11.96;68.71;94606.06;4971973;28;20026;-71
2021/11/21 12:10:58;;;;;;;15.95;14.32;;;;;;;11.84;69.14;94611.97;4972235;28;20030;-71
2021/11/21 12:13:31;;;;;;;15.18;12.43;;;;;;;11.91;68.39;94610.22;4994007;28;20045;-71
2021/11/21 12:16:14;;;;;;;13.68;12.35;;;;;;;11.56;69.31;94606.66;5005332;28;20499;-71
2021/11/21 12:18:53;;;;;;;13.18;12.02;;;;;;;11.88;68.86;94603.59;4979382;28;20019;-70
2021/11/21 12:21:41;;;;;;;13.98;12.75;;;;;;;11.80;68.38;94600.34;4975356;28;20454;-71
2021/11/21 12:24:17;;;;;;;13.52;12.13;;;;;;;11.71;68.80;94596.28;4970149;28;20027;-71
2021/11/21 12:26:43;;;;;;;12.18;11.15;;;;;;;11.72;68.67;94592.69;4971048;28;20120;-71
2021/11/21 12:29:08;;;;;;;13.73;12.52;;;;;;;11.89;68.68;94589.66;4981821;28;20105;-71
2021/11/21 12:31:37;;;;;;;13.00;11.90;;;;;;;11.63;69.32;94591.97;4990009;28;20027;-71
2021/11/21 12:34:41;;;;;;;14.98;12.45;;;;;;;11.64;69.11;94580.63;4987018;28;20437;-71
2021/11/21 12:37:06;;;;;;;13.10;11.85;;;;;;;11.68;69.18;94581.88;4989353;28;20427;-71
2021/11/21 12:39:33;;;;;;;14.30;12.02;;;;;;;11.77;69.10;94573.00;4987978;28;20030;-71
2021/11/21 12:42:06;;;;;;;13.63;12.50;;;;;;;11.72;68.53;94562.34;4973253;28;20045;-71
2021/11/21 12:44:33;;;;;;;15.50;13.85;;;;;;;11.82;68.56;94559.44;4970228;28;20027;-70
2021/11/21 12:47:03;;;;;;;14.30;13.07;;;;;;;11.77;69.19;94559.22;4968819;28;20051;-71
2021/11/21 12:49:28;;;;;;;14.30;12.75;;;;;;;11.77;69.12;94562.59;4969980;28;20042;-71
2021/11/21 12:52:13;;;;;;;15.57;14.00;;;;;;;12.10;68.54;94561.03;4969773;28;20030;-71
2021/11/21 12:54:39;;;;;;;12.43;11.43;;;;;;;12.31;67.08;94561.97;4968300;28;20034;-71
2021/11/21 12:57:06;;;;;;;14.00;12.60;;;;;;;12.15;67.62;94556.09;4970469;28;20373;-71
2021/11/21 12:59:56;;;;;;;14.00;12.50;;;;;;;12.07;66.87;94558.81;4968767;28;20045;-71
2021/11/21 13:02:26;;;;;;;13.40;12.00;;;;;;;12.03;67.72;94559.41;5000544;28;20052;-71
2021/11/21 13:04:57;;;;;;;13.98;12.57;;;;;;;11.82;67.75;94549.06;4994487;28;20061;-71
2021/11/21 13:07:24;;;;;;;13.35;12.02;;;;;;;11.79;68.72;94542.47;5008118;28;20060;-71
2021/11/21 13:10:04;;;;;;;12.77;11.50;;;;;;;12.07;68.16;94548.44;4977298;28;20138;-71
2021/11/21 13:12:32;;;;;;;13.15;11.75;;;;;;;11.96;68.00;94554.16;4967514;28;20038;-71
2021/11/21 13:15:19;;;;;;;13.27;11.82;;;;;;;11.88;68.52;94538.72;4951811;28;20026;-71
2021/11/21 13:18:02;;;;;;;12.90;11.68;;;;;;;11.89;68.28;94535.16;4962894;28;20049;-70
2021/11/21 13:20:28;;;;;;;13.93;12.43;;;;;;;11.84;69.62;94528.94;4993577;28;20029;-71
2021/11/21 13:23:01;;;;;;;13.43;12.10;;;;;;;11.83;69.85;94530.72;5003944;28;20030;-71
2021/11/21 13:25:38;;;;;;;13.77;12.38;;;;;;;11.62;70.07;94528.91;4994386;28;20045;-71
2021/11/21 13:28:27;;;;;;;16.25;12.25;;;;;;;11.73;70.60;94527.66;4989429;28;20040;-71
2021/11/21 13:30:59;;;;;;;18.10;12.30;;;;;;;11.56;70.72;94524.47;4970476;28;20495;-71
2021/11/21 13:33:35;;;;;;;14.43;11.70;;;;;;;11.52;71.06;94525.06;4988179;28;20131;-71
2021/11/21 13:36:03;;;;;;;12.68;11.50;;;;;;;11.55;70.83;94517.72;4989006;28;20054;-71
2021/11/21 13:38:30;;;;;;;15.73;12.20;;;;;;;11.37;71.65;94511.34;4982992;28;20054;-71
2021/11/21 13:40:57;;;;;;;12.50;11.40;;;;;;;11.51;70.98;94511.28;4973288;28;20415;-71
2021/11/21 13:43:53;;;;;;;14.38;10.88;;;;;;;11.68;70.25;94511.81;4962540;28;20031;-71
2021/11/21 13:46:31;;;;;;;14.73;12.38;;;;;;;11.50;71.34;94512.25;4967981;28;20051;-71
2021/11/21 13:48:59;;;;;;;14.05;12.80;;;;;;;11.22;72.43;94513.22;4969628;28;20027;-71
2021/11/21 13:51:31;;;;;;;14.52;12.98;;;;;;;11.33;72.37;94518.72;4968304;28;20023;-71
2021/11/21 13:53:57;;;;;;;18.27;12.82;;;;;;;11.12;72.84;94521.28;4969361;28;20034;-71
2021/11/21 13:56:23;;;;;;;16.20;12.77;;;;;;;11.26;72.58;94524.81;4969933;28;20474;-71
2021/11/21 13:58:50;;;;;;;14.35;13.05;;;;;;;11.25;72.36;94525.81;4977231;28;20115;-71
2021/11/21 14:01:23;;;;;;;16.08;13.10;;;;;;;11.09;73.47;94535.44;4985181;28;20189;-71
2021/11/21 14:04:04;;;;;;;15.82;14.13;;;;;;;11.10;73.73;94529.28;5007331;28;20038;-71
2021/11/21 14:06:34;;;;;;;18.27;15.20;;;;;;;11.12;73.77;94526.47;4990740;28;20116;-71
2021/11/21 14:09:00;;;;;;;17.67;15.95;;;;;;;11.04;73.65;94529.97;5006558;28;20476;-71
2021/11/21 14:11:32;;;;;;;16.15;14.48;;;;;;;10.99;73.82;94526.34;4990757;28;20038;-71
2021/11/21 14:14:08;;;;;;;15.32;13.65;;;;;;;10.87;74.32;94522.63;5007286;28;20135;-71
2021/11/21 14:16:45;;;;;;;38.58;26.85;;;;;;;10.74;75.66;94520.69;5006265;28;20025;-72
2021/11/21 14:19:31;;;;;;;29.88;23.15;;;;;;;10.67;76.34;94525.00;5012364;28;20486;-71
2021/11/21 14:22:14;;;;;;;28.45;19.35;;;;;;;10.51;76.95;94515.66;4993053;28;20410;-72
2021/11/21 14:24:42;;;;;;;18.05;16.27;;;;;;;10.45;77.10;94513.78;5010123;28;20091;-72
2021/11/21 14:27:21;;;;;;;14.02;12.57;;;;;;;10.35;77.71;94521.03;4992912;28;20117;-72
2021/11/21 14:29:53;;;;;;;22.02;17.83;;;;;;;10.16;78.60;94515.59;4969767;28;20037;-72
2021/11/21 14:32:18;;;;;;;37.90;32.00;;;;;;;9.93;80.72;94519.03;4974510;28;20042;-71
2021/11/21 14:34:44;;;;;;;16.13;14.45;;;;;;;9.76;82.03;94522.75;4990593;28;20479;-71
2021/11/21 14:37:11;;;;;;;12.65;10.15;;;;;;;9.49;83.23;94516.38;4991837;28;20096;-71
2021/11/21 14:39:37;;;;;;;14.52;11.57;;;;;;;9.19;84.56;94516.47;4989765;28;20031;-71
2021/11/21 14:42:08;;;;;;;16.63;14.93;;;;;;;8.86;86.57;94521.06;4992045;28;20398;-72
2021/11/21 14:44:35;;;;;;;16.52;13.98;;;;;;;8.81;87.26;94528.50;4991553;28;20046;-71
2021/11/21 14:47:00;;;;;;;21.83;16.83;;;;;;;8.80;87.46;94529.47;4973465;28;20027;-71
2021/11/21 14:49:30;;;;;;;22.02;14.20;;;;;;;8.68;87.66;94531.63;4991163;28;20496;-71
2021/11/21 14:51:56;;;;;;;14.70;11.35;;;;;;;8.36;88.67;94526.63;4989547;28;20109;-71
2021/11/21 14:54:25;;;;;;;13.77;10.75;;;;;;;8.19;89.62;94530.19;4992128;28;20202;-71
2021/11/21 14:57:02;;;;;;;23.27;14.88;;;;;;;8.02;90.58;94528.66;4990493;28;20081;-71
2021/11/21 14:59:28;;;;;;;105.55;66.72;;;;;;;7.99;91.17;94532.38;4989269;28;20047;-71
2021/11/21 15:01:53;;;;;;;37.67;27.83;;;;;;;7.82;91.39;94529.03;4977387;28;20128;-71
2021/11/21 15:04:19;;;;;;;53.67;35.40;;;;;;;7.70;91.80;94527.78;4971312;28;20031;-71
2021/11/21 15:06:44;;;;;;;44.92;33.33;;;;;;;7.48;92.63;94523.25;4991459;28;20018;-71
2021/11/21 15:09:11;;;;;;;50.03;35.38;;;;;;;7.31;93.33;94519.91;4989824;28;20109;-71
2021/11/21 15:11:39;;;;;;;29.27;18.92;;;;;;;7.13;93.56;94529.56;4991684;28;20030;-71
2021/11/21 15:14:05;;;;;;;25.30;16.55;;;;;;;6.86;94.41;94525.53;4989760;28;20463;-72
2021/11/21 15:16:30;;;;;;;37.30;24.40;;;;;;;6.96;94.41;94530.53;4974153;28;20027;-72
2021/11/21 15:18:56;;;;;;;79.97;57.50;;;;;;;6.84;95.13;94524.84;4990138;28;20031;-71
2021/11/21 15:21:22;;;;;;;49.33;31.08;;;;;;;6.59;96.38;94528.34;4990323;28;20065;-71
2021/11/21 15:23:48;;;;;;;53.33;32.35;;;;;;;6.51;97.63;94530.09;4991456;28;20030;-71
2021/11/21 15:26:19;;;;;;;57.17;39.65;;;;;;;6.64;96.73;94535.59;4989697;28;20035;-71
2021/11/21 15:28:46;;;;;;;45.55;29.27;;;;;;;6.68;96.28;94526.59;4973157;28;20282;-71
2021/11/21 15:31:12;;;;;;;32.92;21.70;;;;;;;6.40;96.34;94533.75;4966534;28;20041;-71
2021/11/21 15:33:37;;;;;;;29.33;23.95;;;;;;;6.36;96.62;94535.03;4974605;28;20023;-71
2021/11/21 15:36:04;;;;;;;33.00;16.85;;;;;;;6.19;97.24;94533.38;4987830;28;20034;-71
2021/11/21 15:38:31;;;;;;;27.30;19.70;;;;;;;6.09;98.09;94540.41;4989405;28;20034;-71
2021/11/21 15:40:57;;;;;;;34.58;26.38;;;;;;;6.08;98.26;94546.47;4989075;28;20033;-71
2021/11/21 15:43:23;;;;;;;57.92;38.05;;;;;;;5.90;98.57;94545.75;4989455;28;20030;-71
2021/11/21 15:45:48;;;;;;;31.23;25.73;;;;;;;5.90;98.42;94550.91;4988985;28;20042;-71
2021/11/21 15:48:15;;;;;;;19.25;14.52;;;;;;;5.73;98.77;94545.63;4988061;28;20025;-71
2021/11/21 15:50:41;;;;;;;16.60;14.63;;;;;;;5.77;98.59;94549.50;4989546;28;20034;-71
2021/11/21 15:53:06;;;;;;;16.65;14.93;;;;;;;5.70;98.51;94551.06;4988002;28;20023;-71
2021/11/21 15:55:33;;;;;;;19.35;14.95;;;;;;;5.59;99.42;94546.16;4989592;28;20480;-71
2021/11/21 15:58:00;;;;;;;28.80;21.52;;;;;;;5.53;99.44;94543.41;4988761;28;20466;-71
2021/11/21 16:00:25;;;;;;;18.90;15.38;;;;;;;5.25;99.78;94538.41;4990018;28;20120;-71
2021/11/21 16:02:51;;;;;;;22.13;14.88;;;;;;;5.24;100.00;94539.34;4986474;28;20058;-71
2021/11/21 16:05:17;;;;;;;20.48;16.60;;;;;;;5.21;100.00;94543.97;4972985;28;20386;-71
2021/11/21 16:07:43;;;;;;;18.50;14.32;;;;;;;5.17;100.00;94548.59;4986740;28;20030;-71
2021/11/21 16:10:14;;;;;;;22.33;18.45;;;;;;;5.12;100.00;94542.28;4986834;28;20451;-71
2021/11/21 16:12:43;;;;;;;27.52;19.48;;;;;;;5.01;100.00;94538.19;4970861;28;20034;-71
2021/11/21 16:15:10;;;;;;;27.27;19.38;;;;;;;4.92;100.00;94541.63;4969692;28;20042;-71
2021/11/21 16:17:35;;;;;;;21.45;15.82;;;;;;;4.84;100.00;94543.34;4986679;28;20045;-71
2021/11/21 16:20:03;;;;;;;19.20;14.48;;;;;;;4.69;100.00;94546.38;4987781;28;20042;-71
2021/11/21 16:22:28;;;;;;;21.17;14.48;;;;;;;4.39;100.00;94556.16;4986885;28;20030;-71
2021/11/21 16:24:55;;;;;;;21.77;15.48;;;;;;;4.31;100.00;94553.50;4987599;28;20042;-71
2021/11/21 16:27:20;;;;;;;18.77;14.32;;;;;;;4.53;100.00;94551.34;4986255;28;20018;-71
2021/11/21 16:29:46;;;;;;;19.35;14.43;;;;;;;4.27;100.00;94558.09;4987510;28;20110;-71